Time;durP1;ratioP1;P1;durP2;ratioP2;P2;SDS_P1;SDS_P2;PMS_P1;PMS_P2;Temp;Humidity;BMP_temperature;BMP_pressure;BME280_temperature;BME280_humidity;BME280_pressure;Samples;Min_cycle;Max_cycle;Signal;HPM_P1;HPM_P2
2022/08/04 00:02:22;;;;;;;6.85;2.63;;;21.40;99.90;;;;;;5095989;28;20066;-65
2022/08/04 00:05:04;;;;;;;6.22;2.00;;;21.30;99.90;;;;;;5110938;28;20051;-65
2022/08/04 00:07:38;;;;;;;4.95;2.45;;;21.30;99.90;;;;;;5097995;28;20317;-65
2022/08/04 00:10:10;;;;;;;10.25;2.50;;;21.20;99.90;;;;;;5113399;28;20078;-64
2022/08/04 00:12:43;;;;;;;4.28;2.40;;;21.20;99.90;;;;;;5113715;28;20051;-65
2022/08/04 00:15:13;;;;;;;4.88;2.22;;;21.20;99.90;;;;;;5111009;28;20055;-65
2022/08/04 00:17:48;;;;;;;4.07;2.28;;;21.20;99.90;;;;;;5080669;28;20453;-65
2022/08/04 00:20:17;;;;;;;4.18;2.63;;;21.30;99.90;;;;;;5109225;28;20487;-65
2022/08/04 00:22:45;;;;;;;3.90;2.30;;;21.30;99.90;;;;;;5112696;28;20044;-66
2022/08/04 00:25:12;;;;;;;4.85;2.30;;;21.30;99.90;;;;;;5096848;28;20043;-74
2022/08/04 00:27:39;;;;;;;19.95;16.02;;;21.40;99.90;;;;;;5095486;28;20054;-64
2022/08/04 00:30:07;;;;;;;12.07;10.15;;;21.40;99.90;;;;;;5114421;28;20402;-66
2022/08/04 00:32:34;;;;;;;6.32;3.70;;;21.50;99.90;;;;;;5111495;28;20055;-65
2022/08/04 00:35:01;;;;;;;5.28;3.05;;;21.50;99.90;;;;;;5092947;28;20043;-65
2022/08/04 00:37:28;;;;;;;5.25;2.40;;;21.50;99.90;;;;;;5110716;28;20063;-65
2022/08/04 00:39:55;;;;;;;3.65;2.28;;;21.50;99.90;;;;;;5113315;28;20055;-65
2022/08/04 00:42:41;;;;;;;8.55;2.75;;;21.50;99.90;;;;;;5110729;28;20046;-65
2022/08/04 00:45:48;;;;;;;8.00;2.53;;;21.50;99.90;;;;;;5098364;28;20130;-65
2022/08/04 00:49:12;;;;;;;5.80;2.45;;;21.50;99.90;;;;;;5099427;28;20479;-65
2022/08/04 00:52:17;;;;;;;8.85;3.25;;;21.50;99.90;;;;;;5107183;28;20065;-65
2022/08/04 00:55:02;;;;;;;8.95;2.42;;;21.50;99.90;;;;;;5039551;28;20048;-65
2022/08/04 00:58:13;;;;;;;4.88;2.58;;;21.40;99.90;;;;;;5109540;28;20101;-65
2022/08/04 01:01:01;;;;;;;5.43;2.60;;;21.50;99.90;;;;;;5107568;28;20050;-68
2022/08/04 01:04:09;;;;;;;5.10;2.50;;;21.40;99.90;;;;;;5083610;28;20043;-65
2022/08/04 01:06:54;;;;;;;2.97;1.75;;;21.40;99.90;;;;;;5079656;28;20051;-66
2022/08/04 01:09:59;;;;;;;5.38;2.30;;;21.40;99.90;;;;;;5110650;28;20040;-65
2022/08/04 01:12:54;;;;;;;5.30;2.40;;;21.40;99.90;;;;;;5113673;28;20495;-65
2022/08/04 01:15:53;;;;;;;4.32;1.90;;;21.30;99.90;;;;;;5099884;28;20040;-65
2022/08/04 01:18:51;;;;;;;5.95;2.35;;;21.30;99.90;;;;;;5066889;28;20074;-65
2022/08/04 01:21:30;;;;;;;5.25;2.47;;;21.20;99.90;;;;;;5113636;28;20104;-67
2022/08/04 01:24:10;;;;;;;4.88;2.85;;;21.20;99.90;;;;;;5110314;28;20498;-67
2022/08/04 01:26:49;;;;;;;7.07;2.60;;;21.10;99.90;;;;;;5097205;28;20410;-65
2022/08/04 01:29:26;;;;;;;5.78;1.92;;;21.00;99.90;;;;;;5093408;28;20100;-64
2022/08/04 01:32:19;;;;;;;4.60;2.30;;;21.00;99.90;;;;;;5099061;28;20441;-65
2022/08/04 01:35:06;;;;;;;5.40;2.30;;;20.90;99.90;;;;;;5111495;28;20428;-65
2022/08/04 01:37:48;;;;;;;6.25;2.60;;;20.80;99.90;;;;;;5111450;28;20043;-64
2022/08/04 01:40:15;;;;;;;8.93;2.58;;;20.80;99.90;;;;;;5097957;28;20047;-65
2022/08/04 01:42:44;;;;;;;4.13;2.10;;;20.70;99.90;;;;;;5079314;28;20081;-65
2022/08/04 01:45:11;;;;;;;;;;;20.70;99.90;;;;;;5109868;28;20055;-65
2022/08/04 01:47:48;;;;;;;5.32;2.08;;;20.70;99.90;;;;;;5113086;28;19919;-65
2022/08/04 01:50:15;;;;;;;5.45;2.38;;;20.70;99.90;;;;;;5092749;28;20040;-68
2022/08/04 01:52:43;;;;;;;7.80;2.85;;;20.70;99.90;;;;;;5110760;28;20043;-65
2022/08/04 01:55:17;;;;;;;7.30;2.83;;;20.70;99.90;;;;;;5107150;28;20380;-65
2022/08/04 01:57:49;;;;;;;4.57;2.47;;;20.70;99.90;;;;;;5111618;28;20039;-66
2022/08/04 02:00:23;;;;;;;7.60;2.60;;;20.70;99.90;;;;;;5105564;28;20040;-65
2022/08/04 02:02:50;;;;;;;10.30;2.75;;;20.80;99.90;;;;;;5111293;28;20059;-65
2022/08/04 02:05:18;;;;;;;6.00;2.63;;;20.80;99.90;;;;;;5095917;28;20043;-66
2022/08/04 02:08:13;;;;;;;3.38;2.00;;;20.80;99.90;;;;;;5089306;28;20483;-65
2022/08/04 02:10:57;;;;;;;3.78;2.47;;;20.80;99.90;;;;;;5103091;28;20036;-65
2022/08/04 02:13:54;;;;;;;5.93;2.85;;;20.80;99.90;;;;;;5094619;28;20071;-66
2022/08/04 02:16:27;;;;;;;4.18;2.25;;;20.90;99.90;;;;;;5111875;28;20047;-66
2022/08/04 02:19:30;;;;;;;6.43;2.42;;;20.80;99.90;;;;;;5090049;28;20040;-66
2022/08/04 02:22:07;;;;;;;5.32;2.50;;;20.80;99.90;;;;;;5109499;28;20056;-67
2022/08/04 02:24:49;;;;;;;4.55;2.13;;;20.80;99.90;;;;;;5092398;28;20089;-65
2022/08/04 02:27:16;;;;;;;5.78;2.78;;;20.90;99.90;;;;;;5096762;28;20050;-65
2022/08/04 02:29:57;;;;;;;4.82;2.40;;;20.80;99.90;;;;;;5111441;28;20101;-65
2022/08/04 02:32:28;;;;;;;4.47;2.15;;;20.80;99.90;;;;;;5111618;28;20047;-65
2022/08/04 02:35:02;;;;;;;4.07;2.22;;;20.80;99.90;;;;;;5111768;28;20054;-65
2022/08/04 02:37:30;;;;;;;7.93;2.42;;;20.70;99.90;;;;;;5110940;28;20047;-66
2022/08/04 02:40:00;;;;;;;7.20;2.87;;;20.70;99.90;;;;;;5110131;28;20043;-66
2022/08/04 02:42:28;;;;;;;4.65;2.00;;;20.70;99.90;;;;;;5108700;28;20055;-65
2022/08/04 02:44:56;;;;;;;4.55;2.30;;;20.70;99.90;;;;;;5111544;28;20052;-65
2022/08/04 02:47:24;;;;;;;4.50;2.17;;;20.70;99.90;;;;;;5094683;28;20062;-65
2022/08/04 02:50:11;;;;;;;7.32;1.92;;;20.70;99.90;;;;;;5096887;28;20040;-65
2022/08/04 02:52:38;;;;;;;6.80;2.10;;;20.60;99.90;;;;;;5110026;28;20117;-65
2022/08/04 02:55:05;;;;;;;6.35;2.55;;;20.70;99.90;;;;;;5111022;28;20051;-65
2022/08/04 02:57:32;;;;;;;5.30;2.10;;;20.60;99.90;;;;;;5109968;28;20048;-66
2022/08/04 03:00:11;;;;;;;4.38;2.20;;;20.60;99.90;;;;;;5098338;28;20075;-65
2022/08/04 03:02:41;;;;;;;;;;;20.60;99.90;;;;;;5105896;28;20044;-65
2022/08/04 03:05:17;;;;;;;5.78;1.92;;;20.60;99.90;;;;;;5090537;28;19927;-68
2022/08/04 03:08:12;;;;;;;5.07;2.53;;;20.50;99.90;;;;;;5103376;28;20047;-65
2022/08/04 03:10:57;;;;;;;4.95;2.30;;;20.50;99.90;;;;;;5105225;28;20487;-65
2022/08/04 03:13:27;;;;;;;5.78;1.90;;;20.40;99.90;;;;;;5112035;28;20047;-67
2022/08/04 03:16:08;;;;;;;5.15;2.00;;;20.40;99.90;;;;;;5100329;28;20040;-65
2022/08/04 03:19:04;;;;;;;4.88;2.42;;;20.30;99.90;;;;;;5110832;28;20051;-65
2022/08/04 03:21:58;;;;;;;3.58;1.83;;;20.30;99.90;;;;;;5081877;28;20051;-65
2022/08/04 03:24:37;;;;;;;7.78;2.60;;;20.20;99.90;;;;;;5107289;28;20100;-65
2022/08/04 03:27:11;;;;;;;3.83;2.00;;;20.20;99.90;;;;;;5092254;28;20052;-65
2022/08/04 03:30:17;;;;;;;5.60;2.33;;;20.20;99.90;;;;;;5108925;28;20040;-65
2022/08/04 03:32:56;;;;;;;6.38;2.40;;;20.20;99.90;;;;;;5088277;28;20101;-65
2022/08/04 03:36:00;;;;;;;7.47;2.58;;;20.10;99.90;;;;;;5110736;28;20487;-65
2022/08/04 03:39:04;;;;;;;9.32;2.75;;;20.10;99.90;;;;;;5108888;28;20051;-65
2022/08/04 03:41:37;;;;;;;4.15;2.08;;;20.00;99.90;;;;;;5110552;28;20056;-65
2022/08/04 03:44:49;;;;;;;3.58;2.08;;;20.00;99.90;;;;;;5111331;28;20100;-65
2022/08/04 03:47:34;;;;;;;5.65;2.45;;;20.00;99.90;;;;;;5110919;28;20513;-66
2022/08/04 03:50:41;;;;;;;6.88;2.70;;;20.00;99.90;;;;;;5106022;28;20048;-65
2022/08/04 03:53:54;;;;;;;6.15;2.42;;;19.90;99.90;;;;;;5103053;28;20043;-68
2022/08/04 03:56:23;;;;;;;5.47;2.40;;;19.90;99.90;;;;;;5089235;28;21229;-65
2022/08/04 03:59:21;;;;;;;7.10;2.42;;;19.90;99.90;;;;;;5109608;28;20055;-65
2022/08/04 04:02:07;;;;;;;5.50;2.58;;;19.90;99.90;;;;;;5110204;28;20108;-65
2022/08/04 04:04:37;;;;;;;7.20;2.08;;;19.90;99.90;;;;;;5109355;28;20104;-66
2022/08/04 04:07:14;;;;;;;6.97;2.53;;;19.90;99.90;;;;;;5110378;28;20130;-65
2022/08/04 04:09:55;;;;;;;5.13;2.38;;;19.90;99.90;;;;;;5109471;28;20040;-65
2022/08/04 04:12:59;;;;;;;7.22;2.53;;;19.80;99.90;;;;;;5109094;28;20998;-65
2022/08/04 04:15:50;;;;;;;7.40;2.83;;;19.80;99.90;;;;;;5100814;28;20044;-65
2022/08/04 04:18:38;;;;;;;4.32;2.20;;;19.70;99.90;;;;;;5073983;28;20040;-65
2022/08/04 04:21:26;;;;;;;6.45;2.25;;;19.70;99.90;;;;;;5107470;28;20540;-66
2022/08/04 04:24:01;;;;;;;7.63;2.20;;;19.60;99.90;;;;;;5112902;28;20075;-65
2022/08/04 04:26:56;;;;;;;6.78;2.67;;;19.50;99.90;;;;;;5114471;28;20396;-66
2022/08/04 04:30:05;;;;;;;5.75;2.50;;;19.40;99.90;;;;;;5113083;28;20126;-65
2022/08/04 04:32:42;;;;;;;5.20;2.60;;;19.30;99.90;;;;;;5054457;28;20053;-65
2022/08/04 04:35:29;;;;;;;5.03;2.80;;;19.20;99.90;;;;;;5035643;28;20525;-67
2022/08/04 04:38:17;;;;;;;6.78;2.60;;;19.10;99.90;;;;;;5080681;28;20051;-65
2022/08/04 04:41:03;;;;;;;6.55;3.35;;;19.10;99.90;;;;;;5104352;28;20049;-65
2022/08/04 04:43:47;;;;;;;5.18;2.60;;;19.00;99.90;;;;;;5114520;28;20056;-65
2022/08/04 04:46:53;;;;;;;8.48;3.15;;;18.90;99.90;;;;;;5095022;28;20052;-67
2022/08/04 04:49:28;;;;;;;7.20;3.63;;;18.90;99.90;;;;;;5113579;28;20047;-65
2022/08/04 04:52:08;;;;;;;6.80;2.85;;;18.90;99.90;;;;;;5109916;28;20463;-65
2022/08/04 04:54:50;;;;;;;5.95;3.10;;;19.00;99.90;;;;;;5113686;28;20054;-65
2022/08/04 04:57:19;;;;;;;8.25;3.42;;;18.90;99.90;;;;;;5094061;28;20043;-66
2022/08/04 05:00:08;;;;;;;9.60;3.17;;;18.90;99.90;;;;;;5098639;28;20487;-65
2022/08/04 05:03:03;;;;;;;10.07;3.65;;;18.90;99.90;;;;;;5112725;28;20055;-65
2022/08/04 05:05:50;;;;;;;6.35;3.10;;;18.90;99.90;;;;;;5115486;28;20138;-65
2022/08/04 05:08:35;;;;;;;5.97;3.13;;;18.90;99.90;;;;;;5109413;28;20047;-65
2022/08/04 05:11:33;;;;;;;8.13;5.25;;;18.90;99.90;;;;;;5108058;28;20051;-65
2022/08/04 05:14:04;;;;;;;8.38;3.83;;;19.00;99.90;;;;;;5109184;28;20050;-66
2022/08/04 05:17:08;;;;;;;8.63;4.03;;;19.30;99.90;;;;;;5111169;28;20040;-65
2022/08/04 05:19:48;;;;;;;6.75;2.95;;;19.80;99.90;;;;;;5113069;28;20055;-65
2022/08/04 05:22:21;;;;;;;9.90;3.30;;;20.30;99.90;;;;;;5107654;28;20347;-65
2022/08/04 05:24:48;;;;;;;8.13;3.47;;;20.70;99.90;;;;;;5092359;28;20494;-65
2022/08/04 05:27:24;;;;;;;8.30;2.90;;;21.00;99.90;;;;;;5094475;28;20048;-65
2022/08/04 05:29:56;;;;;;;7.53;2.85;;;21.30;99.90;;;;;;5081961;28;20048;-63
2022/08/04 05:32:36;;;;;;;7.60;2.95;;;21.20;99.90;;;;;;5071573;28;20043;-63
2022/08/04 05:35:08;;;;;;;9.30;3.22;;;21.00;99.90;;;;;;5096550;28;20051;-62
2022/08/04 05:37:35;;;;;;;9.60;2.38;;;20.70;99.90;;;;;;5094736;28;20482;-63
2022/08/04 05:40:04;;;;;;;5.22;2.60;;;20.50;99.90;;;;;;5076779;28;20073;-64
2022/08/04 05:42:33;;;;;;;10.40;3.28;;;20.50;99.90;;;;;;5090436;28;20048;-64
2022/08/04 05:45:00;;;;;;;4.65;2.28;;;20.40;99.90;;;;;;5095181;28;20046;-65
2022/08/04 05:47:27;;;;;;;7.90;3.15;;;20.30;99.90;;;;;;5101982;28;20079;-67
2022/08/04 05:49:54;;;;;;;7.03;2.80;;;20.20;99.90;;;;;;5087998;28;20515;-65
2022/08/04 05:52:29;;;;;;;6.90;2.95;;;20.10;99.90;;;;;;5103202;28;20078;-66
2022/08/04 05:54:56;;;;;;;5.65;2.42;;;20.00;99.90;;;;;;5071814;28;20052;-65
2022/08/04 05:57:22;;;;;;;6.43;2.50;;;20.00;99.90;;;;;;5094924;28;20418;-65
2022/08/04 05:59:49;;;;;;;10.48;3.55;;;19.90;99.90;;;;;;5112676;28;20043;-65
2022/08/04 06:02:16;;;;;;;9.77;4.07;;;19.90;99.90;;;;;;5112945;28;20043;-66
2022/08/04 06:04:45;;;;;;;6.32;2.47;;;19.90;99.90;;;;;;5105430;28;20056;-65
2022/08/04 06:07:15;;;;;;;6.63;2.70;;;19.80;99.90;;;;;;5093675;28;20051;-65
2022/08/04 06:09:42;;;;;;;26.52;16.45;;;19.80;99.90;;;;;;5092396;28;20487;-65
2022/08/04 06:12:36;;;;;;;69.53;58.35;;;19.80;99.90;;;;;;5112547;28;20487;-65
2022/08/04 06:15:03;;;;;;;14.93;9.77;;;19.90;99.90;;;;;;5083322;28;20044;-67
2022/08/04 06:17:52;;;;;;;8.07;4.13;;;20.00;99.90;;;;;;5058920;28;20048;-68
2022/08/04 06:20:40;;;;;;;8.18;2.80;;;20.10;99.90;;;;;;5099201;28;20079;-70
2022/08/04 06:23:16;;;;;;;7.15;2.50;;;20.20;99.90;;;;;;5078136;28;20048;-71
2022/08/04 06:25:47;;;;;;;8.30;2.72;;;20.30;99.90;;;;;;5095155;28;20490;-68
2022/08/04 06:28:14;;;;;;;6.25;2.80;;;20.30;99.90;;;;;;5084588;28;20050;-65
2022/08/04 06:30:41;;;;;;;8.50;3.88;;;20.40;99.90;;;;;;5074357;28;20039;-62
2022/08/04 06:33:32;;;;;;;8.90;3.13;;;20.40;99.90;;;;;;5082941;28;20055;-62
2022/08/04 06:36:19;;;;;;;5.15;1.83;;;20.40;99.90;;;;;;5094053;28;20073;-65
2022/08/04 06:38:46;;;;;;;6.13;2.33;;;20.50;99.90;;;;;;5093329;28;20059;-73
2022/08/04 06:41:24;;;;;;;6.32;2.20;;;20.50;99.90;;;;;;5084871;28;20043;-68
2022/08/04 06:43:51;;;;;;;4.30;1.98;;;20.50;99.90;;;;;;5074040;28;20052;-68
2022/08/04 06:46:18;;;;;;;5.47;2.20;;;20.40;99.90;;;;;;5102732;28;20055;-66
2022/08/04 06:48:45;;;;;;;6.53;2.72;;;20.40;99.90;;;;;;5095338;28;20050;-68
2022/08/04 06:51:13;;;;;;;8.05;2.88;;;20.50;99.90;;;;;;5111844;28;20047;-68
2022/08/04 06:53:58;;;;;;;11.98;2.47;;;20.50;99.90;;;;;;5100844;28;20051;-68
2022/08/04 06:56:26;;;;;;;6.63;2.58;;;20.50;99.90;;;;;;5111559;28;20044;-68
2022/08/04 06:58:53;;;;;;;7.68;2.45;;;20.50;99.90;;;;;;5088857;28;20044;-68
2022/08/04 07:01:20;;;;;;;4.85;2.15;;;20.60;99.90;;;;;;5061498;28;20067;-68
2022/08/04 07:03:48;;;;;;;8.20;2.50;;;20.70;99.90;;;;;;5094144;28;20429;-65
2022/08/04 07:06:17;;;;;;;;;;;20.70;99.90;;;;;;5095335;28;20066;-68
2022/08/04 07:08:44;;;;;;;27.48;24.13;;;20.60;99.90;;;;;;5106617;28;20274;-67
2022/08/04 07:11:11;;;;;;;14.25;9.65;;;20.60;99.90;;;;;;5104282;28;20122;-65
2022/08/04 07:13:38;;;;;;;9.30;3.75;;;20.50;99.90;;;;;;5061935;28;20069;-65
2022/08/04 07:16:12;;;;;;;7.80;2.95;;;20.40;99.90;;;;;;5110426;28;20070;-67
2022/08/04 07:18:39;;;;;;;6.05;2.58;;;20.30;99.90;;;;;;5093187;28;20047;-67
2022/08/04 07:21:06;;;;;;;21.45;4.57;;;20.30;99.90;;;;;;5105529;28;20058;-66
2022/08/04 07:23:33;;;;;;;7.28;3.22;;;20.40;99.90;;;;;;5074442;28;20052;-65
2022/08/04 07:26:00;;;;;;;10.93;3.10;;;20.50;99.90;;;;;;5106390;28;20050;-61
2022/08/04 07:28:39;;;;;;;9.83;2.70;;;20.50;99.90;;;;;;5079849;28;20149;-59
2022/08/04 07:31:07;;;;;;;8.93;2.88;;;20.50;99.90;;;;;;5106391;28;20044;-63
2022/08/04 07:33:34;;;;;;;6.97;2.35;;;20.60;99.90;;;;;;5102528;28;20048;-60
2022/08/04 07:36:00;;;;;;;5.97;2.60;;;20.60;99.90;;;;;;5094214;28;20047;-59
2022/08/04 07:38:40;;;;;;;5.00;2.03;;;20.60;99.90;;;;;;5107321;28;20044;-69
2022/08/04 07:41:23;;;;;;;9.18;2.58;;;20.70;99.90;;;;;;5075019;28;20047;-71
2022/08/04 07:44:07;;;;;;;7.30;2.70;;;20.80;99.90;;;;;;5089962;28;20044;-72
2022/08/04 07:46:35;;;;;;;8.20;3.33;;;20.90;99.90;;;;;;5092722;28;20062;-65
2022/08/04 07:49:02;;;;;;;6.07;2.40;;;20.90;99.90;;;;;;5073242;28;20503;-68
2022/08/04 07:51:29;;;;;;;5.15;2.42;;;21.10;99.90;;;;;;5085073;28;20503;-65
2022/08/04 07:53:56;;;;;;;6.10;2.63;;;21.30;99.90;;;;;;5105968;28;20039;-65
2022/08/04 07:56:24;;;;;;;7.05;2.75;;;21.20;99.90;;;;;;5111397;28;20066;-65
2022/08/04 07:58:51;;;;;;;4.15;2.00;;;21.10;99.90;;;;;;5061410;28;20052;-66
2022/08/04 08:01:18;;;;;;;7.28;3.33;;;21.10;99.90;;;;;;5076909;28;20055;-67
2022/08/04 08:03:45;;;;;;;6.75;3.08;;;20.90;99.90;;;;;;5087533;28;20953;-65
2022/08/04 08:06:13;;;;;;;7.88;2.58;;;20.80;99.90;;;;;;5110037;28;20502;-67
2022/08/04 08:08:59;;;;;;;4.75;2.25;;;20.70;99.90;;;;;;5078243;28;20130;-64
2022/08/04 08:11:46;;;;;;;69.32;61.95;;;20.70;99.90;;;;;;5113693;28;20132;-64
2022/08/04 08:14:34;;;;;;;8.98;6.32;;;20.70;99.90;;;;;;5093832;28;20113;-67
2022/08/04 08:17:02;;;;;;;9.18;4.13;;;20.80;99.90;;;;;;5077945;28;20047;-68
2022/08/04 08:19:32;;;;;;;6.97;2.88;;;20.80;99.90;;;;;;5082029;28;20445;-68
2022/08/04 08:21:59;;;;;;;5.18;2.65;;;20.90;99.90;;;;;;5113667;28;20048;-66
2022/08/04 08:24:33;;;;;;;7.53;2.70;;;21.00;99.90;;;;;;5078142;28;20502;-71
2022/08/04 08:27:03;;;;;;;7.68;3.08;;;21.10;99.90;;;;;;5113841;28;20055;-67
2022/08/04 08:29:30;;;;;;;8.20;2.60;;;21.00;99.90;;;;;;5110099;28;20049;-67
2022/08/04 08:31:57;;;;;;;6.32;2.58;;;21.00;99.90;;;;;;5087974;28;20048;-77
2022/08/04 08:34:28;;;;;;;8.25;3.22;;;21.00;99.90;;;;;;5091720;28;20050;-76
2022/08/04 08:37:01;;;;;;;7.38;2.60;;;20.90;99.90;;;;;;5069278;28;20053;-74
2022/08/04 08:39:33;;;;;;;5.60;2.25;;;20.90;99.90;;;;;;5097365;28;20048;-71
2022/08/04 08:42:06;;;;;;;8.63;3.38;;;20.90;99.90;;;;;;5083872;28;20052;-70
2022/08/04 08:45:12;;;;;;;6.78;2.50;;;21.00;99.90;;;;;;5095820;28;20511;-66
2022/08/04 08:47:52;;;;;;;10.35;2.60;;;21.10;99.90;;;;;;5094129;28;20056;-68
2022/08/04 08:50:38;;;;;;;6.85;3.55;;;21.00;99.90;;;;;;5108957;28;20043;-68
2022/08/04 08:53:42;;;;;;;10.82;3.08;;;21.10;99.90;;;;;;5112904;28;20055;-69
2022/08/04 08:56:12;;;;;;;7.22;2.22;;;21.20;99.90;;;;;;5112316;28;20047;-66
2022/08/04 08:59:18;;;;;;;8.48;2.63;;;21.20;99.90;;;;;;5108757;28;20044;-65
2022/08/04 09:02:18;;;;;;;7.35;2.65;;;21.30;99.90;;;;;;5098420;28;20052;-70
2022/08/04 09:05:04;;;;;;;7.75;2.97;;;21.40;99.90;;;;;;5102026;28;20043;-67
2022/08/04 09:08:12;;;;;;;12.23;3.25;;;21.50;99.90;;;;;;5110005;28;20044;-66
2022/08/04 09:11:12;;;;;;;7.55;2.30;;;21.50;99.90;;;;;;5059051;28;20044;-68
2022/08/04 09:13:55;;;;;;;5.78;2.38;;;21.60;99.90;;;;;;5106265;28;20074;-68
2022/08/04 09:16:35;;;;;;;11.20;3.45;;;21.60;99.90;;;;;;5095421;28;20043;-65
2022/08/04 09:19:13;;;;;;;6.43;2.60;;;21.70;99.90;;;;;;5111683;28;20404;-67
2022/08/04 09:22:18;;;;;;;6.28;2.00;;;21.80;99.90;;;;;;5097132;28;20051;-67
2022/08/04 09:25:07;;;;;;;10.80;2.13;;;22.00;99.90;;;;;;5109821;28;20486;-67
2022/08/04 09:27:49;;;;;;;8.82;2.15;;;22.10;99.90;;;;;;5106550;28;20051;-67
2022/08/04 09:30:31;;;;;;;5.97;2.20;;;22.10;99.90;;;;;;5073678;28;20429;-67
2022/08/04 09:33:10;;;;;;;10.15;2.92;;;22.00;99.90;;;;;;5078085;28;20507;-67
2022/08/04 09:35:44;;;;;;;5.00;2.08;;;22.10;99.90;;;;;;5069989;28;20047;-66
2022/08/04 09:38:58;;;;;;;5.55;2.30;;;22.20;99.90;;;;;;5105795;28;20454;-65
2022/08/04 09:41:37;;;;;;;8.82;2.70;;;22.40;99.90;;;;;;5055439;28;20064;-67
2022/08/04 09:44:38;;;;;;;6.90;2.13;;;22.70;99.90;;;;;;5077275;28;20105;-67
2022/08/04 09:47:38;;;;;;;6.72;1.77;;;22.90;99.90;;;;;;5103757;28;20054;-68
2022/08/04 09:50:36;;;;;;;5.43;1.75;;;23.00;99.90;;;;;;5111285;28;20046;-66
2022/08/04 09:53:15;;;;;;;4.32;1.90;;;23.10;99.90;;;;;;5106293;28;20094;-63
2022/08/04 09:55:46;;;;;;;6.68;2.20;;;23.10;99.90;;;;;;5110580;28;20051;-66
2022/08/04 09:58:31;;;;;;;5.90;2.10;;;23.10;99.90;;;;;;5110239;28;20054;-69
2022/08/04 10:01:02;;;;;;;;;;;23.10;99.90;;;;;;5112321;28;20054;-64
2022/08/04 10:03:33;;;;;;;3.83;1.50;;;22.90;99.60;;;;;;5106804;28;19919;-66
2022/08/04 10:06:10;;;;;;;7.32;2.53;;;22.80;99.90;;;;;;5090279;28;20065;-65
2022/08/04 10:08:52;;;;;;;5.45;1.75;;;22.90;99.90;;;;;;5101974;28;20039;-65
2022/08/04 10:11:57;;;;;;;7.55;2.13;;;23.00;99.90;;;;;;5105579;28;20052;-68
2022/08/04 10:14:43;;;;;;;6.10;1.80;;;23.10;99.30;;;;;;5108085;28;20062;-69
2022/08/04 10:17:28;;;;;;;8.27;2.40;;;23.30;99.00;;;;;;5099341;28;20434;-67
2022/08/04 10:20:08;;;;;;;5.22;1.90;;;23.30;99.70;;;;;;5093220;28;20380;-70
2022/08/04 10:22:37;;;;;;;12.73;2.53;;;23.20;98.80;;;;;;5090043;28;20069;-66
2022/08/04 10:25:48;;;;;;;7.88;2.63;;;23.10;99.00;;;;;;5106973;28;20083;-74
2022/08/04 10:28:42;;;;;;;5.82;1.88;;;23.20;99.50;;;;;;5108229;28;20051;-68
2022/08/04 10:31:11;;;;;;;9.48;2.03;;;23.10;98.60;;;;;;5108319;28;20089;-69
2022/08/04 10:33:57;;;;;;;6.22;1.70;;;23.20;98.40;;;;;;5093242;28;20471;-65
2022/08/04 10:36:26;;;;;;;6.80;1.90;;;23.10;97.60;;;;;;5098471;28;20649;-69
2022/08/04 10:39:02;;;;;;;6.63;2.25;;;22.80;98.30;;;;;;5076927;28;20058;-66
2022/08/04 10:42:11;;;;;;;21.38;2.75;;;22.80;97.80;;;;;;5070175;28;20502;-68
2022/08/04 10:44:44;;;;;;;;;;;23.00;97.90;;;;;;5068160;28;20476;-68
2022/08/04 10:47:37;;;;;;;3.60;1.80;;;23.10;98.00;;;;;;5102143;28;19938;-66
2022/08/04 10:50:04;;;;;;;5.28;2.25;;;23.00;97.10;;;;;;5106999;27;20053;-66
2022/08/04 10:52:45;;;;;;;10.15;3.30;;;23.00;97.30;;;;;;5112161;28;20044;-68
2022/08/04 10:55:19;;;;;;;4.68;1.77;;;23.20;97.80;;;;;;5111840;28;20043;-67
2022/08/04 10:57:51;;;;;;;3.05;1.55;;;23.20;96.20;;;;;;5109238;28;20113;-67
2022/08/04 11:00:23;;;;;;;3.88;1.50;;;23.10;95.90;;;;;;5091273;28;20054;-69
2022/08/04 11:03:02;;;;;;;5.88;1.92;;;23.00;96.40;;;;;;5105722;28;20475;-69
2022/08/04 11:05:30;;;;;;;;;;;23.20;96.80;;;;;;5111513;28;20135;-70
2022/08/04 11:08:10;;;;;;;5.10;1.65;;;23.30;96.30;;;;;;5093359;28;19943;-67
2022/08/04 11:11:13;;;;;;;8.02;2.03;;;23.50;95.70;;;;;;5105400;28;20100;-68
2022/08/04 11:13:45;;;;;;;4.00;1.60;;;23.70;94.90;;;;;;5111335;28;20055;-68
2022/08/04 11:16:24;;;;;;;3.33;1.70;;;23.80;94.60;;;;;;5112004;28;20059;-65
2022/08/04 11:19:12;;;;;;;3.15;1.45;;;23.80;93.80;;;;;;5110098;28;20044;-65
2022/08/04 11:21:43;;;;;;;3.85;1.77;;;23.80;93.40;;;;;;5094367;28;20070;-66
2022/08/04 11:24:24;;;;;;;7.10;1.77;;;23.90;93.20;;;;;;5077946;28;20059;-65
2022/08/04 11:27:00;;;;;;;3.97;2.10;;;23.90;92.80;;;;;;5089775;28;20055;-67
2022/08/04 11:29:41;;;;;;;3.97;1.92;;;24.00;91.70;;;;;;5086162;28;20477;-65
2022/08/04 11:32:13;;;;;;;3.63;1.60;;;24.20;92.40;;;;;;5106422;28;20062;-65
2022/08/04 11:34:43;;;;;;;8.43;2.25;;;24.30;92.00;;;;;;5081860;28;20043;-66
2022/08/04 11:37:20;;;;;;;4.70;1.60;;;24.60;93.50;;;;;;5079432;28;20501;-65
2022/08/04 11:39:49;;;;;;;6.68;1.60;;;24.70;90.00;;;;;;5091031;28;20056;-66
2022/08/04 11:42:30;;;;;;;3.95;1.50;;;24.60;90.70;;;;;;5090864;28;20048;-73
2022/08/04 11:45:03;;;;;;;3.35;1.40;;;24.60;89.50;;;;;;5070148;28;20063;-68
2022/08/04 11:47:52;;;;;;;5.65;1.63;;;24.60;90.00;;;;;;5090728;28;20055;-67
2022/08/04 11:50:37;;;;;;;7.15;4.38;;;24.70;89.10;;;;;;5111407;28;20051;-63
2022/08/04 11:53:04;;;;;;;33.47;26.73;;;24.90;87.80;;;;;;5094087;28;20534;-64
2022/08/04 11:55:31;;;;;;;6.07;5.45;;;25.00;89.50;;;;;;5094600;28;20051;-67
2022/08/04 11:58:19;;;;;;;5.88;2.83;;;25.10;87.70;;;;;;5110908;28;20074;-65
2022/08/04 12:01:26;;;;;;;5.13;1.77;;;25.10;86.80;;;;;;5094103;28;20044;-65
2022/08/04 12:04:02;;;;;;;3.17;1.60;;;25.00;84.50;;;;;;5110933;28;20048;-66
2022/08/04 12:06:55;;;;;;;5.10;1.63;;;25.10;81.30;;;;;;5111450;28;20066;-64
2022/08/04 12:10:18;;;;;;;3.20;1.20;;;24.90;81.90;;;;;;5111082;28;20040;-65
2022/08/04 12:13:10;;;;;;;4.60;1.58;;;24.90;80.30;;;;;;5088143;28;20063;-65
2022/08/04 12:16:06;;;;;;;4.70;1.60;;;24.90;81.10;;;;;;5074197;28;20063;-65
2022/08/04 12:18:37;;;;;;;3.75;1.67;;;25.00;81.90;;;;;;5105176;28;20048;-65
2022/08/04 12:21:28;;;;;;;4.10;1.30;;;25.00;81.50;;;;;;5110984;28;20047;-65
2022/08/04 12:23:57;;;;;;;2.40;1.10;;;25.30;80.50;;;;;;5110915;28;20528;-65
2022/08/04 12:26:28;;;;;;;3.63;1.40;;;25.50;77.00;;;;;;5094190;28;20043;-65
2022/08/04 12:28:58;;;;;;;3.60;1.10;;;25.60;78.70;;;;;;5110746;28;20142;-67
2022/08/04 12:31:44;;;;;;;3.88;1.40;;;25.80;78.50;;;;;;5084955;28;20047;-65
2022/08/04 12:34:11;;;;;;;3.47;1.35;;;26.00;75.60;;;;;;5089711;28;20065;-65
2022/08/04 12:36:55;;;;;;;6.13;1.45;;;25.90;76.40;;;;;;5108009;28;20399;-65
2022/08/04 12:39:22;;;;;;;3.88;1.42;;;26.00;75.20;;;;;;5077091;28;20063;-66
2022/08/04 12:42:06;;;;;;;4.68;1.50;;;26.00;75.70;;;;;;5084854;28;20047;-66
2022/08/04 12:44:34;;;;;;;2.92;1.48;;;25.90;74.90;;;;;;5090427;28;20047;-65
2022/08/04 12:47:06;;;;;;;3.78;1.73;;;25.80;75.40;;;;;;5102633;28;20156;-66
2022/08/04 12:49:54;;;;;;;1.98;1.10;;;25.80;75.50;;;;;;5073767;28;20048;-62
2022/08/04 12:52:28;;;;;;;3.58;1.70;;;26.00;74.70;;;;;;5096625;28;20043;-66
2022/08/04 12:55:16;;;;;;;3.17;1.30;;;26.10;75.60;;;;;;5096483;28;20078;-65
2022/08/04 12:57:43;;;;;;;2.95;1.30;;;26.10;74.70;;;;;;5075671;28;20048;-71
2022/08/04 13:00:10;;;;;;;2.72;1.40;;;26.20;75.30;;;;;;5113102;28;20051;-64
2022/08/04 13:02:41;;;;;;;2.90;1.50;;;26.30;74.30;;;;;;5112921;28;20051;-65
2022/08/04 13:05:08;;;;;;;3.50;1.70;;;26.30;73.00;;;;;;5092993;28;20105;-65
2022/08/04 13:07:46;;;;;;;4.18;1.35;;;26.20;71.50;;;;;;5092918;28;20048;-65
2022/08/04 13:10:17;;;;;;;5.15;1.30;;;26.30;71.40;;;;;;5079130;28;20055;-73
2022/08/04 13:12:52;;;;;;;3.22;1.55;;;26.40;70.20;;;;;;5113102;28;20055;-74
2022/08/04 13:15:22;;;;;;;5.53;1.40;;;26.40;67.50;;;;;;5110960;28;20084;-71
2022/08/04 13:17:57;;;;;;;3.05;1.40;;;26.50;68.50;;;;;;5113903;28;20043;-72
2022/08/04 13:20:35;;;;;;;2.45;1.20;;;26.40;68.60;;;;;;5107683;28;20083;-71
2022/08/04 13:23:04;;;;;;;1.95;1.10;;;26.50;68.40;;;;;;5113887;28;20047;-72
2022/08/04 13:25:39;;;;;;;3.95;1.60;;;26.40;68.40;;;;;;5094049;28;20062;-71
2022/08/04 13:28:26;;;;;;;6.22;1.63;;;26.40;68.50;;;;;;5112340;28;20051;-71
2022/08/04 13:30:59;;;;;;;3.58;1.50;;;26.50;69.70;;;;;;5112061;28;20491;-70
2022/08/04 13:33:33;;;;;;;11.52;1.98;;;26.40;69.20;;;;;;5079833;28;20058;-69
2022/08/04 13:36:00;;;;;;;9.05;1.90;;;26.50;69.70;;;;;;5108156;28;20122;-72
2022/08/04 13:38:27;;;;;;;3.20;1.52;;;26.80;68.70;;;;;;5076161;28;20070;-70
2022/08/04 13:41:02;;;;;;;7.53;1.50;;;26.90;70.20;;;;;;5095703;28;20052;-72
2022/08/04 13:43:42;;;;;;;4.32;1.58;;;26.90;68.90;;;;;;5079217;28;20047;-70
2022/08/04 13:46:31;;;;;;;4.15;1.42;;;26.80;69.70;;;;;;5078626;28;20101;-73
2022/08/04 13:49:00;;;;;;;4.20;1.45;;;26.60;70.10;;;;;;5076224;28;20055;-71
2022/08/04 13:51:52;;;;;;;7.60;1.55;;;26.40;70.80;;;;;;5102426;28;20376;-69